createdAt,value
2017-11-09T00:00:28.855Z,14
2017-11-09T00:01:31.283Z,13.9
2017-11-09T00:02:33.706Z,13.9
2017-11-09T00:03:36.144Z,13.9
2017-11-09T00:04:38.569Z,13.9
2017-11-09T00:05:41.001Z,13.9
2017-11-09T00:06:43.422Z,13.9
2017-11-09T00:07:46.225Z,13.9
2017-11-09T00:08:48.652Z,13.9
2017-11-09T00:09:51.069Z,13.8
2017-11-09T00:10:53.498Z,13.8
2017-11-09T00:11:55.924Z,13.8
2017-11-09T00:12:58.352Z,13.8
2017-11-09T00:14:00.789Z,13.8
2017-11-09T00:15:03.199Z,13.8
2017-11-09T00:16:05.625Z,13.8
2017-11-09T00:17:08.070Z,13.8
2017-11-09T00:18:10.497Z,13.8
2017-11-09T00:19:12.922Z,13.8
2017-11-09T00:20:15.354Z,13.8
2017-11-09T00:21:17.775Z,13.8
2017-11-09T00:22:20.577Z,13.8
2017-11-09T00:23:23.010Z,13.7
2017-11-09T00:24:25.428Z,13.7
2017-11-09T00:25:27.855Z,13.8
2017-11-09T00:26:30.284Z,13.7
2017-11-09T00:27:32.711Z,13.7
2017-11-09T00:28:35.139Z,13.8
2017-11-09T00:29:37.558Z,13.8
2017-11-09T00:30:39.989Z,13.8
2017-11-09T00:31:43.158Z,13.8
2017-11-09T00:32:45.587Z,13.8
2017-11-09T00:33:48.011Z,13.8
2017-11-09T00:34:50.434Z,13.8
2017-11-09T00:35:52.861Z,13.8
2017-11-09T00:36:55.282Z,13.8
2017-11-09T00:37:58.068Z,13.8
2017-11-09T00:39:00.503Z,13.8
2017-11-09T00:40:02.931Z,13.8
2017-11-09T00:41:05.350Z,13.8
2017-11-09T00:42:07.790Z,13.8
2017-11-09T00:43:10.212Z,13.8
2017-11-09T00:44:12.995Z,13.8
2017-11-09T00:45:15.421Z,13.8
2017-11-09T00:46:17.849Z,13.8
2017-11-09T00:47:20.278Z,13.8
2017-11-09T00:48:22.716Z,13.8
2017-11-09T00:49:25.490Z,13.8
2017-11-09T00:50:27.933Z,13.8
2017-11-09T00:51:30.351Z,13.8
2017-11-09T00:52:32.785Z,13.8
2017-11-09T00:53:35.227Z,13.8
2017-11-09T00:54:38.026Z,13.8
2017-11-09T00:55:40.801Z,13.8
2017-11-09T00:56:43.240Z,13.7
2017-11-09T00:57:45.659Z,13.7
2017-11-09T00:58:48.093Z,13.7
2017-11-09T00:59:50.519Z,13.7
2017-11-09T01:00:52.949Z,13.7
2017-11-09T01:01:55.376Z,13.7
2017-11-09T01:02:57.812Z,13.7
2017-11-09T01:04:00.235Z,13.7
2017-11-09T01:05:02.672Z,13.7
2017-11-09T01:06:05.102Z,13.7
2017-11-09T01:07:07.513Z,13.7
2017-11-09T01:08:09.950Z,13.7
2017-11-09T01:09:12.370Z,13.7
2017-11-09T01:10:15.162Z,13.7
2017-11-09T01:11:17.589Z,13.7
2017-11-09T01:12:20.014Z,13.7
2017-11-09T01:13:22.797Z,13.7
2017-11-09T01:14:25.236Z,13.7
2017-11-09T01:15:27.664Z,13.7
2017-11-09T01:16:30.082Z,13.7
2017-11-09T01:17:32.868Z,13.7
2017-11-09T01:18:36.029Z,13.7
2017-11-09T01:19:38.470Z,13.7
2017-11-09T01:20:41.277Z,13.7
2017-11-09T01:21:44.097Z,13.7
2017-11-09T01:22:46.525Z,13.7
2017-11-09T01:23:48.948Z,13.6
2017-11-09T01:24:51.374Z,13.6
2017-11-09T01:25:53.795Z,13.6
2017-11-09T01:26:56.575Z,13.6
2017-11-09T01:27:59.005Z,13.6
2017-11-09T01:29:01.449Z,13.6
2017-11-09T01:30:04.240Z,13.6
2017-11-09T01:31:06.669Z,13.6
2017-11-09T01:32:09.468Z,13.6
2017-11-09T01:33:11.893Z,13.6
2017-11-09T01:34:14.681Z,13.6
2017-11-09T01:35:17.106Z,13.6
2017-11-09T01:36:19.536Z,13.5
2017-11-09T01:37:21.964Z,13.5
2017-11-09T01:38:24.760Z,13.5
2017-11-09T01:39:27.177Z,13.5
2017-11-09T01:40:29.623Z,13.5
2017-11-09T01:41:32.049Z,13.5
2017-11-09T01:42:34.480Z,13.5
2017-11-09T01:43:36.901Z,13.5
2017-11-09T01:44:39.683Z,13.5
2017-11-09T01:45:42.105Z,13.5
2017-11-09T01:46:44.536Z,13.5
2017-11-09T01:47:46.964Z,13.5
2017-11-09T01:48:49.382Z,13.5
2017-11-09T01:49:52.167Z,13.5
2017-11-09T01:50:54.597Z,13.5
2017-11-09T01:51:57.022Z,13.5
2017-11-09T01:52:59.450Z,13.5
2017-11-09T01:54:01.882Z,13.5
2017-11-09T01:55:04.695Z,13.4
2017-11-09T01:56:07.114Z,13.4
2017-11-09T01:57:09.547Z,13.4
2017-11-09T01:58:11.975Z,13.4
2017-11-09T01:59:14.422Z,13.4
2017-11-09T02:00:17.578Z,13.4
2017-11-09T02:01:20.015Z,13.4
2017-11-09T02:02:22.788Z,13.4
2017-11-09T02:03:25.581Z,13.4
2017-11-09T02:04:28.381Z,13.4
2017-11-09T02:05:30.802Z,13.4
2017-11-09T02:06:33.232Z,13.4
2017-11-09T02:07:35.657Z,13.4
2017-11-09T02:08:38.445Z,13.4
2017-11-09T02:09:40.878Z,13.4
2017-11-09T02:10:43.661Z,13.4
2017-11-09T02:11:46.079Z,13.4
2017-11-09T02:12:48.513Z,13.5
2017-11-09T02:13:50.936Z,13.5
2017-11-09T02:14:53.368Z,13.5
2017-11-09T02:15:55.792Z,13.5
2017-11-09T02:16:58.223Z,13.5
2017-11-09T02:18:00.646Z,13.5
2017-11-09T02:19:03.074Z,13.5
2017-11-09T02:20:05.495Z,13.5
2017-11-09T02:21:07.922Z,13.5
2017-11-09T02:22:10.348Z,13.5
2017-11-09T02:23:13.127Z,13.5
2017-11-09T02:24:15.553Z,13.5
2017-11-09T02:25:17.987Z,13.5
2017-11-09T02:26:20.412Z,13.5
2017-11-09T02:27:23.194Z,13.5
2017-11-09T02:28:25.624Z,13.5
2017-11-09T02:29:28.424Z,13.5
2017-11-09T02:30:30.847Z,13.5
2017-11-09T02:31:33.273Z,13.4
2017-11-09T02:32:35.697Z,13.5
2017-11-09T02:33:38.846Z,13.5
2017-11-09T02:34:41.278Z,13.5
2017-11-09T02:35:43.715Z,13.5
2017-11-09T02:36:46.516Z,13.5
2017-11-09T02:37:49.286Z,13.4
2017-11-09T02:38:52.083Z,13.5
2017-11-09T02:39:54.522Z,13.5
2017-11-09T02:40:56.944Z,13.4
2017-11-09T02:41:59.373Z,13.4
2017-11-09T02:43:01.796Z,13.4
2017-11-09T02:44:04.222Z,13.4
2017-11-09T02:45:07.012Z,13.4
2017-11-09T02:46:09.795Z,13.4
2017-11-09T02:47:12.576Z,13.4
2017-11-09T02:48:15.009Z,13.4
2017-11-09T02:49:17.429Z,13.4
2017-11-09T02:50:19.861Z,13.4
2017-11-09T02:51:22.287Z,13.4
2017-11-09T02:52:24.709Z,13.4
2017-11-09T02:53:27.138Z,13.4
2017-11-09T02:54:29.946Z,13.4
2017-11-09T02:55:32.366Z,13.3
2017-11-09T02:56:35.150Z,13.3
2017-11-09T02:57:37.575Z,13.3
2017-11-09T02:58:40.003Z,13.3
2017-11-09T02:59:42.794Z,13.2
2017-11-09T03:00:45.225Z,13.2
2017-11-09T03:01:47.636Z,13.2
2017-11-09T03:02:50.064Z,13.3
2017-11-09T03:03:52.860Z,13.3
2017-11-09T03:04:55.286Z,13.3
2017-11-09T03:05:57.717Z,13.3
2017-11-09T03:07:00.150Z,13.3
2017-11-09T03:08:02.575Z,13.3
2017-11-09T03:09:04.983Z,13.3
2017-11-09T03:10:07.790Z,13.3
2017-11-09T03:11:10.206Z,13.4
2017-11-09T03:12:12.639Z,13.3
2017-11-09T03:13:15.062Z,13.4
2017-11-09T03:14:17.489Z,13.4
2017-11-09T03:15:19.916Z,13.4
2017-11-09T03:16:22.354Z,13.4
2017-11-09T03:17:24.782Z,13.3
2017-11-09T03:18:27.219Z,13.4
2017-11-09T03:19:29.639Z,13.4
2017-11-09T03:20:32.069Z,13.4
2017-11-09T03:21:34.490Z,13.4
2017-11-09T03:22:36.922Z,13.4
2017-11-09T03:23:39.342Z,13.4
2017-11-09T03:24:41.769Z,13.4
2017-11-09T03:25:44.184Z,13.3
2017-11-09T03:26:46.614Z,13.3
2017-11-09T03:27:49.041Z,13.3
2017-11-09T03:28:51.677Z,13.3
2017-11-09T03:29:54.095Z,13.3
2017-11-09T03:30:56.523Z,13.3
2017-11-09T03:31:58.949Z,13.3
2017-11-09T03:33:01.735Z,13.3
2017-11-09T03:34:04.157Z,13.3
2017-11-09T03:35:06.591Z,13.3
2017-11-09T03:36:09.017Z,13.4
2017-11-09T03:37:11.440Z,13.4
2017-11-09T03:38:13.870Z,13.4
2017-11-09T03:39:16.293Z,13.4
2017-11-09T03:40:18.726Z,13.4
2017-11-09T03:41:21.520Z,13.4
2017-11-09T03:42:23.946Z,13.4
2017-11-09T03:43:26.373Z,13.4
2017-11-09T03:44:28.812Z,13.4
2017-11-09T03:45:31.245Z,13.4
2017-11-09T03:46:33.674Z,13.4
2017-11-09T03:47:36.106Z,13.4
2017-11-09T03:48:38.534Z,13.4
2017-11-09T03:49:41.317Z,13.4
2017-11-09T03:50:43.743Z,13.4
2017-11-09T03:51:46.164Z,13.4
2017-11-09T03:52:48.587Z,13.4
2017-11-09T03:53:51.020Z,13.4
2017-11-09T03:54:53.443Z,13.4
2017-11-09T03:55:55.863Z,13.4
2017-11-09T03:56:58.296Z,13.4
2017-11-09T03:58:00.726Z,13.4
2017-11-09T03:59:03.541Z,13.4
2017-11-09T04:00:05.970Z,13.4
2017-11-09T04:01:08.392Z,13.4
2017-11-09T04:02:10.819Z,13.4
2017-11-09T04:03:13.606Z,13.4
2017-11-09T04:04:16.033Z,13.4
2017-11-09T04:05:18.458Z,13.4
2017-11-09T04:06:20.898Z,13.4
2017-11-09T04:07:23.678Z,13.4
2017-11-09T04:08:26.104Z,13.4
2017-11-09T04:09:28.537Z,13.4
2017-11-09T04:10:30.957Z,13.4
2017-11-09T04:11:33.383Z,13.4
2017-11-09T04:12:35.817Z,13.4
2017-11-09T04:13:38.239Z,13.4
2017-11-09T04:14:40.678Z,13.3
2017-11-09T04:15:43.449Z,13.3
2017-11-09T04:16:45.872Z,13.4
2017-11-09T04:17:48.683Z,13.4
2017-11-09T04:18:51.113Z,13.4
2017-11-09T04:19:53.527Z,13.4
2017-11-09T04:20:55.960Z,13.4
2017-11-09T04:21:58.388Z,13.4
2017-11-09T04:23:00.816Z,13.4
2017-11-09T04:24:03.605Z,13.4
2017-11-09T04:25:06.022Z,13.4
2017-11-09T04:26:08.451Z,13.4
2017-11-09T04:27:10.893Z,13.4
2017-11-09T04:28:13.322Z,13.4
2017-11-09T04:29:15.741Z,13.4
2017-11-09T04:30:18.162Z,13.4
2017-11-09T04:31:20.592Z,13.4
2017-11-09T04:32:23.004Z,13.4
2017-11-09T04:33:25.430Z,13.4
2017-11-09T04:34:27.869Z,13.4
2017-11-09T04:35:30.665Z,13.4
2017-11-09T04:36:33.091Z,13.4
2017-11-09T04:37:35.516Z,13.4
2017-11-09T04:38:37.933Z,13.4
2017-11-09T04:39:40.370Z,13.4
2017-11-09T04:40:42.796Z,13.3
2017-11-09T04:41:45.213Z,13.3
2017-11-09T04:42:47.643Z,13.3
2017-11-09T04:43:50.070Z,13.3
2017-11-09T04:44:52.492Z,13.3
2017-11-09T04:45:54.920Z,13.3
2017-11-09T04:46:57.344Z,13.3
2017-11-09T04:48:00.121Z,13.2
2017-11-09T04:49:02.554Z,13.3
2017-11-09T04:50:05.350Z,13.2
2017-11-09T04:51:07.777Z,13.3
2017-11-09T04:52:10.200Z,13.3
2017-11-09T04:53:12.639Z,13.3
2017-11-09T04:54:15.406Z,13.3
2017-11-09T04:55:17.833Z,13.3
2017-11-09T04:56:20.624Z,13.2
2017-11-09T04:57:23.406Z,13.2
2017-11-09T04:58:26.225Z,13.2
2017-11-09T04:59:29.036Z,13.1
2017-11-09T05:00:31.446Z,13.1
2017-11-09T05:01:33.888Z,13.1
2017-11-09T05:02:36.304Z,13.1
2017-11-09T05:03:39.086Z,13.1
2017-11-09T05:04:41.512Z,13.1
2017-11-09T05:05:43.933Z,13
2017-11-09T05:06:46.363Z,13
2017-11-09T05:07:48.801Z,13.1
2017-11-09T05:08:51.223Z,13
2017-11-09T05:09:53.650Z,13
2017-11-09T05:10:56.076Z,13
2017-11-09T05:11:58.500Z,13
2017-11-09T05:13:00.936Z,13
2017-11-09T05:14:03.363Z,13
2017-11-09T05:15:05.782Z,13
2017-11-09T05:16:08.216Z,13
2017-11-09T05:17:10.641Z,13
2017-11-09T05:18:13.059Z,13
2017-11-09T05:19:15.480Z,12.9
2017-11-09T05:20:17.911Z,12.9
2017-11-09T05:21:20.336Z,12.9
2017-11-09T05:22:22.768Z,12.9
2017-11-09T05:23:25.191Z,12.9
2017-11-09T05:24:27.617Z,12.9
2017-11-09T05:25:30.404Z,12.8
2017-11-09T05:26:32.831Z,12.8
2017-11-09T05:27:35.254Z,12.8
2017-11-09T05:28:37.680Z,12.8
2017-11-09T05:29:40.484Z,12.8
2017-11-09T05:30:42.911Z,12.8
2017-11-09T05:31:45.704Z,12.8
2017-11-09T05:32:48.129Z,12.8
2017-11-09T05:33:50.561Z,12.8
2017-11-09T05:34:52.986Z,12.8
2017-11-09T05:35:55.806Z,12.8
2017-11-09T05:36:58.225Z,12.9
2017-11-09T05:38:00.661Z,12.9
2017-11-09T05:39:03.429Z,12.9
2017-11-09T05:40:05.856Z,12.9
2017-11-09T05:41:08.283Z,12.9
2017-11-09T05:42:10.711Z,12.9
2017-11-09T05:43:13.137Z,12.9
2017-11-09T05:44:15.564Z,12.9
2017-11-09T05:45:17.989Z,12.9
2017-11-09T05:46:20.416Z,12.9
2017-11-09T05:47:22.842Z,12.9
2017-11-09T05:48:25.270Z,12.9
2017-11-09T05:49:27.687Z,12.9
2017-11-09T05:50:30.486Z,12.9
2017-11-09T05:51:32.925Z,12.8
2017-11-09T05:52:35.709Z,12.8
2017-11-09T05:53:38.128Z,12.8
2017-11-09T05:54:40.558Z,12.8
2017-11-09T05:55:42.978Z,12.8
2017-11-09T05:56:45.413Z,12.8
2017-11-09T05:57:48.181Z,12.7
2017-11-09T05:58:50.605Z,12.8
2017-11-09T05:59:53.040Z,12.7
2017-11-09T06:00:55.468Z,12.7
2017-11-09T06:01:58.249Z,12.7
2017-11-09T06:03:00.685Z,12.7
2017-11-09T06:04:03.109Z,12.7
2017-11-09T06:05:05.901Z,12.7
2017-11-09T06:06:08.711Z,12.7
2017-11-09T06:07:11.141Z,12.7
2017-11-09T06:08:13.566Z,12.7
2017-11-09T06:09:16.346Z,12.7
2017-11-09T06:10:19.129Z,12.7
2017-11-09T06:11:21.560Z,12.7
2017-11-09T06:12:24.370Z,12.7
2017-11-09T06:13:27.159Z,12.6
2017-11-09T06:14:29.576Z,12.6
2017-11-09T06:15:32.012Z,12.6
2017-11-09T06:16:34.426Z,12.6
2017-11-09T06:17:37.213Z,12.5
2017-11-09T06:18:39.637Z,12.5
2017-11-09T06:19:42.065Z,12.5
2017-11-09T06:20:44.491Z,12.5
2017-11-09T06:21:46.918Z,12.5
2017-11-09T06:22:49.334Z,12.5
2017-11-09T06:23:52.115Z,12.5
2017-11-09T06:24:54.900Z,12.5
2017-11-09T06:25:57.321Z,12.5
2017-11-09T06:26:59.754Z,12.5
2017-11-09T06:28:02.179Z,12.5
2017-11-09T06:29:04.612Z,12.4
2017-11-09T06:30:07.746Z,12.4
2017-11-09T06:31:10.188Z,12.4
2017-11-09T06:32:12.608Z,12.4
2017-11-09T06:33:15.040Z,12.4
2017-11-09T06:34:17.820Z,12.4
2017-11-09T06:35:20.247Z,12.4
2017-11-09T06:36:22.674Z,12.4
2017-11-09T06:37:25.107Z,12.4
2017-11-09T06:38:27.520Z,12.4
2017-11-09T06:39:29.947Z,12.4
2017-11-09T06:40:32.380Z,12.4
2017-11-09T06:41:34.797Z,12.4
2017-11-09T06:42:37.228Z,12.4
2017-11-09T06:43:39.647Z,12.4
2017-11-09T06:44:42.075Z,12.4
2017-11-09T06:45:44.508Z,12.4
2017-11-09T06:46:47.294Z,12.3
2017-11-09T06:47:49.717Z,12.3
2017-11-09T06:48:52.496Z,12.3
2017-11-09T06:49:54.934Z,12.4
2017-11-09T06:50:57.350Z,12.4
2017-11-09T06:51:59.775Z,12.4
2017-11-09T06:53:02.576Z,12.4
2017-11-09T06:54:05.392Z,12.4
2017-11-09T06:55:07.830Z,12.3
2017-11-09T06:56:10.619Z,12.4
2017-11-09T06:57:13.042Z,12.3
2017-11-09T06:58:15.473Z,12.4
2017-11-09T06:59:17.903Z,12.4
2017-11-09T07:00:20.714Z,12.4
2017-11-09T07:01:23.141Z,12.4
2017-11-09T07:02:25.570Z,12.4
2017-11-09T07:03:27.992Z,12.5
2017-11-09T07:04:30.780Z,12.5
2017-11-09T07:05:33.554Z,12.5
2017-11-09T07:06:35.972Z,12.5
2017-11-09T07:07:38.402Z,12.5
2017-11-09T07:08:40.828Z,12.6
2017-11-09T07:09:43.256Z,12.6
2017-11-09T07:10:45.682Z,12.6
2017-11-09T07:11:48.099Z,12.6
2017-11-09T07:12:50.527Z,12.7
2017-11-09T07:13:52.968Z,12.7
2017-11-09T07:14:55.393Z,12.7
2017-11-09T07:15:57.820Z,12.7
2017-11-09T07:17:00.254Z,12.7
2017-11-09T07:18:02.673Z,12.7
2017-11-09T07:19:05.120Z,12.7
2017-11-09T07:20:07.547Z,12.7
2017-11-09T07:21:09.961Z,12.7
2017-11-09T07:22:13.111Z,12.7
2017-11-09T07:23:15.533Z,12.7
2017-11-09T07:24:17.961Z,12.6
2017-11-09T07:25:20.387Z,12.6
2017-11-09T07:26:23.160Z,12.6
2017-11-09T07:27:25.585Z,12.6
2017-11-09T07:28:28.021Z,12.6
2017-11-09T07:29:30.446Z,12.6
2017-11-09T07:30:33.244Z,12.6
2017-11-09T07:31:35.658Z,12.6
2017-11-09T07:32:38.084Z,12.6
2017-11-09T07:33:40.505Z,12.5
2017-11-09T07:34:42.928Z,12.5
2017-11-09T07:35:45.359Z,12.5
2017-11-09T07:36:47.779Z,12.5
2017-11-09T07:37:50.204Z,12.5
2017-11-09T07:38:52.638Z,12.4
2017-11-09T07:39:55.060Z,12.5
2017-11-09T07:40:57.487Z,12.4
2017-11-09T07:42:00.267Z,12.5
2017-11-09T07:43:02.690Z,12.4
2017-11-09T07:44:05.118Z,12.4
2017-11-09T07:45:07.547Z,12.4
2017-11-09T07:46:09.976Z,12.4
2017-11-09T07:47:12.400Z,12.4
2017-11-09T07:48:14.827Z,12.4
2017-11-09T07:49:17.259Z,12.4
2017-11-09T07:50:19.690Z,12.4
2017-11-09T07:51:22.489Z,12.4
2017-11-09T07:52:24.952Z,12.3
2017-11-09T07:53:27.342Z,12.3
2017-11-09T07:54:29.765Z,12.3
2017-11-09T07:55:32.192Z,12.3
2017-11-09T07:56:34.615Z,12.3
2017-11-09T07:57:37.040Z,12.3
2017-11-09T07:58:39.823Z,12.3
2017-11-09T07:59:42.299Z,12.3
2017-11-09T08:00:44.914Z,12.2
2017-11-09T08:01:47.331Z,12.3
2017-11-09T08:02:49.764Z,12.2
2017-11-09T08:03:52.195Z,12.2
2017-11-09T08:04:54.615Z,12.2
2017-11-09T08:05:57.399Z,12.3
2017-11-09T08:07:00.197Z,12.3
2017-11-09T08:08:02.625Z,12.3
2017-11-09T08:09:05.055Z,12.3
2017-11-09T08:10:07.871Z,12.3
2017-11-09T08:11:10.289Z,12.3
2017-11-09T08:12:12.724Z,12.3
2017-11-09T08:13:15.517Z,12.3
2017-11-09T08:14:17.950Z,12.2
2017-11-09T08:15:20.375Z,12.2
2017-11-09T08:16:22.795Z,12.2
2017-11-09T08:17:25.228Z,12.2
2017-11-09T08:18:27.671Z,12.2
2017-11-09T08:19:30.094Z,12.2
2017-11-09T08:20:32.868Z,12.2
2017-11-09T08:21:35.297Z,12.2
2017-11-09T08:22:37.716Z,12.2
2017-11-09T08:23:40.155Z,12.2
2017-11-09T08:24:42.588Z,12.2
2017-11-09T08:25:45.008Z,12.2
2017-11-09T08:26:47.434Z,12.2
2017-11-09T08:27:49.860Z,12.2
2017-11-09T08:28:52.295Z,12.3
2017-11-09T08:29:55.423Z,12.3
2017-11-09T08:30:57.850Z,12.3
2017-11-09T08:32:00.275Z,12.3
2017-11-09T08:33:02.704Z,12.3
2017-11-09T08:34:05.126Z,12.3
2017-11-09T08:35:07.570Z,12.3
2017-11-09T08:36:10.355Z,12.3
2017-11-09T08:37:12.799Z,12.3
2017-11-09T08:38:15.227Z,12.3
2017-11-09T08:39:17.649Z,12.3
2017-11-09T08:40:20.069Z,12.3
2017-11-09T08:41:22.496Z,12.4
2017-11-09T08:42:24.922Z,12.4
2017-11-09T08:43:27.745Z,12.4
2017-11-09T08:44:30.172Z,12.4
2017-11-09T08:45:32.591Z,12.4
2017-11-09T08:46:35.018Z,12.4
2017-11-09T08:47:37.444Z,12.4
2017-11-09T08:48:39.869Z,12.4
2017-11-09T08:49:42.674Z,12.5
2017-11-09T08:50:45.462Z,12.4
2017-11-09T08:51:47.906Z,12.4
2017-11-09T08:52:50.332Z,12.4
2017-11-09T08:53:52.755Z,12.3
2017-11-09T08:54:55.184Z,12.3
2017-11-09T08:55:57.618Z,12.3
2017-11-09T08:57:00.040Z,12.3
2017-11-09T08:58:02.473Z,12.4
2017-11-09T08:59:05.269Z,12.4
2017-11-09T09:00:07.692Z,12.4
2017-11-09T09:01:10.132Z,12.4
2017-11-09T09:02:12.562Z,12.4
2017-11-09T09:03:15.590Z,12.5
2017-11-09T09:04:18.329Z,12.5
2017-11-09T09:05:22.159Z,12.5
2017-11-09T09:06:24.589Z,12.5
2017-11-09T09:07:27.021Z,12.5
2017-11-09T09:08:29.789Z,12.6
2017-11-09T09:09:32.214Z,12.6
2017-11-09T09:10:34.647Z,12.6
2017-11-09T09:11:37.073Z,12.6
2017-11-09T09:12:39.492Z,12.6
2017-11-09T09:13:41.917Z,12.6
2017-11-09T09:14:45.075Z,12.6
2017-11-09T09:15:47.492Z,12.6
2017-11-09T09:16:49.920Z,12.6
2017-11-09T09:17:52.691Z,12.6
2017-11-09T09:18:55.119Z,12.6
2017-11-09T09:19:57.557Z,12.5
2017-11-09T09:20:59.975Z,12.5
2017-11-09T09:22:02.407Z,12.5
2017-11-09T09:23:04.828Z,12.5
2017-11-09T09:24:07.258Z,12.5
2017-11-09T09:25:09.693Z,12.5
2017-11-09T09:26:12.119Z,12.4
2017-11-09T09:27:14.550Z,12.4
2017-11-09T09:28:16.980Z,12.4
2017-11-09T09:29:19.409Z,12.4
2017-11-09T09:30:21.839Z,12.4
2017-11-09T09:31:24.272Z,12.4
2017-11-09T09:32:26.709Z,12.4
2017-11-09T09:33:29.138Z,12.4
2017-11-09T09:34:31.556Z,12.4
2017-11-09T09:35:33.987Z,12.4
2017-11-09T09:36:36.405Z,12.4
2017-11-09T09:37:39.191Z,12.4
2017-11-09T09:38:42.357Z,12.4
2017-11-09T09:39:44.783Z,12.4
2017-11-09T09:40:47.212Z,12.4
2017-11-09T09:41:49.650Z,12.4
2017-11-09T09:42:52.067Z,12.4
2017-11-09T09:43:54.500Z,12.4
2017-11-09T09:44:56.932Z,12.4
2017-11-09T09:45:59.716Z,12.5
2017-11-09T09:47:02.148Z,12.5
2017-11-09T09:48:04.576Z,12.5
2017-11-09T09:49:07.352Z,12.5
2017-11-09T09:50:10.163Z,12.5
2017-11-09T09:51:12.590Z,12.5
2017-11-09T09:52:15.019Z,12.5
2017-11-09T09:53:17.448Z,12.5
2017-11-09T09:54:20.232Z,12.5
2017-11-09T09:55:22.667Z,12.5
2017-11-09T09:56:25.107Z,12.6
2017-11-09T09:57:27.527Z,12.6
2017-11-09T09:58:30.297Z,12.6
2017-11-09T09:59:32.725Z,12.6
2017-11-09T10:00:35.577Z,12.7
2017-11-09T10:01:37.978Z,12.7
2017-11-09T10:02:40.410Z,12.7
2017-11-09T10:03:42.838Z,12.8
2017-11-09T10:04:45.260Z,12.8
2017-11-09T10:05:47.706Z,12.8
2017-11-09T10:06:50.131Z,12.8
2017-11-09T10:07:52.554Z,12.8
2017-11-09T10:08:55.205Z,12.8
2017-11-09T10:09:57.637Z,12.8
2017-11-09T10:11:00.428Z,12.8
2017-11-09T10:12:02.860Z,12.8
2017-11-09T10:13:05.286Z,12.8
2017-11-09T10:14:07.708Z,12.9
2017-11-09T10:15:10.155Z,12.9
2017-11-09T10:16:12.583Z,13
2017-11-09T10:17:15.018Z,13
2017-11-09T10:18:17.446Z,13
2017-11-09T10:19:19.871Z,13
2017-11-09T10:20:22.307Z,13
2017-11-09T10:21:25.103Z,13
2017-11-09T10:22:27.508Z,13.1
2017-11-09T10:23:30.315Z,13.1
2017-11-09T10:24:33.598Z,13.1
2017-11-09T10:25:36.026Z,13.1
2017-11-09T10:26:38.461Z,13
2017-11-09T10:27:40.884Z,13.1
2017-11-09T10:28:43.315Z,13
2017-11-09T10:29:45.746Z,13.1
2017-11-09T10:30:48.171Z,13
2017-11-09T10:31:50.613Z,13
2017-11-09T10:32:53.039Z,13
2017-11-09T10:33:55.459Z,13
2017-11-09T10:34:58.273Z,13.1
2017-11-09T10:36:00.695Z,13
2017-11-09T10:37:03.127Z,13.1
2017-11-09T10:38:05.558Z,13.1
2017-11-09T10:39:07.978Z,13.1
2017-11-09T10:40:10.401Z,13.1
2017-11-09T10:41:12.829Z,13.1
2017-11-09T10:42:15.255Z,13.2
2017-11-09T10:43:17.681Z,13.2
2017-11-09T10:44:20.106Z,13.2
2017-11-09T10:45:22.534Z,13.2
2017-11-09T10:46:24.974Z,13.3
2017-11-09T10:47:27.396Z,13.3
2017-11-09T10:48:29.826Z,13.3
2017-11-09T10:49:32.258Z,13.3
2017-11-09T10:50:34.676Z,13.3
2017-11-09T10:51:37.102Z,13.4
2017-11-09T10:52:39.525Z,13.4
2017-11-09T10:53:41.942Z,13.4
2017-11-09T10:54:44.383Z,13.4
2017-11-09T10:55:46.807Z,13.4
2017-11-09T10:56:49.244Z,13.5
2017-11-09T10:57:52.009Z,13.5
2017-11-09T10:58:54.440Z,13.4
2017-11-09T10:59:56.862Z,13.4
2017-11-09T11:00:59.289Z,13.4
2017-11-09T11:02:01.718Z,13.4
2017-11-09T11:03:04.148Z,13.4
2017-11-09T11:04:06.569Z,13.3
2017-11-09T11:05:09.005Z,13.3
2017-11-09T11:06:11.811Z,13.3
2017-11-09T11:07:14.230Z,13.4
2017-11-09T11:08:16.659Z,13.4
2017-11-09T11:09:19.090Z,13.4
2017-11-09T11:10:21.512Z,13.4
2017-11-09T11:11:23.945Z,13.5
2017-11-09T11:12:26.367Z,13.5
2017-11-09T11:13:28.798Z,13.5
2017-11-09T11:14:31.239Z,13.5
2017-11-09T11:15:33.661Z,13.5
2017-11-09T11:16:36.088Z,13.6
2017-11-09T11:17:38.560Z,13.6
2017-11-09T11:18:40.947Z,13.6
2017-11-09T11:19:43.374Z,13.6
2017-11-09T11:20:45.802Z,13.7
2017-11-09T11:21:48.219Z,13.7
2017-11-09T11:22:50.653Z,13.8
2017-11-09T11:23:53.085Z,13.8
2017-11-09T11:24:55.523Z,13.8
2017-11-09T11:25:57.939Z,13.8
2017-11-09T11:27:00.371Z,13.8
2017-11-09T11:28:02.799Z,13.8
2017-11-09T11:29:05.261Z,13.8
2017-11-09T11:30:07.687Z,13.8
2017-11-09T11:31:10.115Z,13.8
2017-11-09T11:32:12.906Z,13.8
2017-11-09T11:33:15.330Z,13.8
2017-11-09T11:34:17.757Z,13.8
2017-11-09T11:35:20.552Z,13.8
2017-11-09T11:36:22.994Z,13.8
2017-11-09T11:37:25.781Z,13.9
2017-11-09T11:38:28.571Z,13.9
2017-11-09T11:39:31.377Z,13.9
2017-11-09T11:40:33.800Z,14
2017-11-09T11:41:36.222Z,14
2017-11-09T11:42:38.652Z,14
2017-11-09T11:43:41.449Z,14.1
2017-11-09T11:44:43.878Z,14.1
2017-11-09T11:45:46.310Z,14.2
2017-11-09T11:46:49.501Z,14.2
2017-11-09T11:47:51.932Z,14.2
2017-11-09T11:48:54.370Z,14.3
2017-11-09T11:49:57.139Z,14.3
2017-11-09T11:50:59.566Z,14.3
2017-11-09T11:52:01.996Z,14.3
2017-11-09T11:53:04.432Z,14.3
2017-11-09T11:54:07.266Z,14.3
2017-11-09T11:55:09.695Z,14.3
2017-11-09T11:56:12.125Z,14.2
2017-11-09T11:57:14.547Z,14.2
2017-11-09T11:58:16.975Z,14.2
2017-11-09T11:59:19.398Z,14.1
2017-11-09T12:00:21.822Z,14.1
2017-11-09T12:01:24.249Z,14.1
2017-11-09T12:02:26.697Z,14.1
2017-11-09T12:03:29.118Z,14.2
2017-11-09T12:04:31.901Z,14.2
2017-11-09T12:05:34.685Z,14.2
2017-11-09T12:06:37.113Z,14.2
2017-11-09T12:07:39.540Z,14.2
2017-11-09T12:08:41.967Z,14.3
2017-11-09T12:09:44.385Z,14.3
2017-11-09T12:10:46.811Z,14.3
2017-11-09T12:11:49.601Z,14.4
2017-11-09T12:12:52.028Z,14.3
2017-11-09T12:13:54.461Z,14.3
2017-11-09T12:14:56.893Z,14.3
2017-11-09T12:15:59.678Z,14.3
2017-11-09T12:17:02.188Z,14.3
2017-11-09T12:18:04.616Z,14.3
2017-11-09T12:19:07.048Z,14.3
2017-11-09T12:20:09.478Z,14.3
2017-11-09T12:21:11.893Z,14.3
2017-11-09T12:22:14.325Z,14.3
2017-11-09T12:23:16.760Z,14.3
2017-11-09T12:24:19.190Z,14.3
2017-11-09T12:25:21.613Z,14.2
2017-11-09T12:26:24.049Z,14.2
2017-11-09T12:27:26.472Z,14.2
2017-11-09T12:28:28.900Z,14.2
2017-11-09T12:29:31.326Z,14.2
2017-11-09T12:30:33.757Z,14.1
2017-11-09T12:31:36.184Z,14.2
2017-11-09T12:32:38.620Z,14.2
2017-11-09T12:33:41.047Z,14.1
2017-11-09T12:34:43.492Z,14.2
2017-11-09T12:35:45.905Z,14.2
2017-11-09T12:36:48.336Z,14.2
2017-11-09T12:37:50.755Z,14.2
2017-11-09T12:38:53.179Z,14.2
2017-11-09T12:39:55.967Z,14.3
2017-11-09T12:40:58.387Z,14.2
2017-11-09T12:42:00.820Z,14.3
2017-11-09T12:43:03.250Z,14.3
2017-11-09T12:44:05.749Z,14.3
2017-11-09T12:45:08.187Z,14.3
2017-11-09T12:46:10.615Z,14.3
2017-11-09T12:47:13.039Z,14.3
2017-11-09T12:48:15.478Z,14.3
2017-11-09T12:49:17.901Z,14.2
2017-11-09T12:50:20.323Z,14.2
2017-11-09T12:51:23.110Z,14.2
2017-11-09T12:52:25.534Z,14.2
2017-11-09T12:53:28.349Z,14.2
2017-11-09T12:54:30.832Z,14.2
2017-11-09T12:55:33.248Z,14.2
2017-11-09T12:56:35.674Z,14.2
2017-11-09T12:57:38.106Z,14.3
2017-11-09T12:58:40.533Z,14.3
2017-11-09T12:59:42.974Z,14.3
2017-11-09T13:00:45.397Z,14.3
2017-11-09T13:01:47.822Z,14.3
2017-11-09T13:02:50.264Z,14.3
2017-11-09T13:03:52.678Z,14.3
2017-11-09T13:04:55.108Z,14.3
2017-11-09T13:05:57.531Z,14.3
2017-11-09T13:07:00.316Z,14.3
2017-11-09T13:08:03.102Z,14.3
2017-11-09T13:09:05.534Z,14.4
2017-11-09T13:10:07.958Z,14.4
2017-11-09T13:11:10.397Z,14.4
2017-11-09T13:12:12.831Z,14.4
2017-11-09T13:13:15.241Z,14.5
2017-11-09T13:14:17.664Z,14.5
2017-11-09T13:15:20.460Z,14.5
2017-11-09T13:16:22.889Z,14.5
2017-11-09T13:17:25.324Z,14.6
2017-11-09T13:18:27.742Z,14.6
2017-11-09T13:19:30.171Z,14.6
2017-11-09T13:20:32.608Z,14.6
2017-11-09T13:21:35.050Z,14.6
2017-11-09T13:22:37.462Z,14.6
2017-11-09T13:23:39.901Z,14.6
2017-11-09T13:24:42.335Z,14.6
2017-11-09T13:25:44.760Z,14.6
2017-11-09T13:26:47.196Z,14.6
2017-11-09T13:27:49.629Z,14.6
2017-11-09T13:28:52.051Z,14.6
2017-11-09T13:29:54.838Z,14.6
2017-11-09T13:30:57.270Z,14.6
2017-11-09T13:32:00.061Z,14.6
2017-11-09T13:33:02.857Z,14.5
2017-11-09T13:34:05.284Z,14.5
2017-11-09T13:35:07.711Z,14.5
2017-11-09T13:36:10.139Z,14.5
2017-11-09T13:37:12.571Z,14.5
2017-11-09T13:38:14.994Z,14.5
2017-11-09T13:39:17.428Z,14.5
2017-11-09T13:40:19.866Z,14.5
2017-11-09T13:41:22.296Z,14.5
2017-11-09T13:42:25.086Z,14.5
2017-11-09T13:43:27.514Z,14.5
2017-11-09T13:44:29.944Z,14.5
2017-11-09T13:45:32.367Z,14.5
2017-11-09T13:46:34.805Z,14.5
2017-11-09T13:47:37.227Z,14.5
2017-11-09T13:48:40.017Z,14.5
2017-11-09T13:49:42.444Z,14.5
2017-11-09T13:50:44.877Z,14.6
2017-11-09T13:51:47.309Z,14.6
2017-11-09T13:52:49.740Z,14.6
2017-11-09T13:53:52.164Z,14.6